Time;durP1;ratioP1;P1;durP2;ratioP2;P2;SDS_P1;SDS_P2;PMS_P1;PMS_P2;Temp;Humidity;BMP_temperature;BMP_pressure;BME280_temperature;BME280_humidity;BME280_pressure;Samples;Min_cycle;Max_cycle;Signal;HPM_P1;HPM_P2
2020/12/04 00:01:38;;;;;;;13.88;8.57;;;;;;;1.07;77.96;98851.41;5104654;28;20044;-64
2020/12/04 00:04:04;;;;;;;24.85;11.30;;;;;;;0.76;78.29;98830.81;5104417;28;20020;-63
2020/12/04 00:06:29;;;;;;;25.50;12.88;;;;;;;0.98;77.95;98853.91;5104448;28;20077;-64
2020/12/04 00:08:55;;;;;;;17.15;8.07;;;;;;;1.35;76.92;98848.13;5104403;28;20083;-64
2020/12/04 00:11:20;;;;;;;25.15;11.18;;;;;;;0.89;78.04;98852.19;5104533;28;20016;-64
2020/12/04 00:13:46;;;;;;;16.75;9.05;;;;;;;1.24;76.56;98840.41;5102655;28;20189;-66
2020/12/04 00:16:11;;;;;;;24.92;9.05;;;;;;;1.10;76.79;98848.03;5104319;28;20023;-64
2020/12/04 00:18:37;;;;;;;29.00;14.20;;;;;;;0.93;77.64;98846.22;5104058;28;20026;-64
2020/12/04 00:21:02;;;;;;;26.70;11.60;;;;;;;0.86;78.01;98839.38;5104559;28;20023;-64
2020/12/04 00:23:27;;;;;;;26.55;10.82;;;;;;;1.01;77.69;98835.22;5104278;28;20020;-64
2020/12/04 00:25:53;;;;;;;21.45;10.25;;;;;;;1.00;77.71;98844.56;5104029;28;20028;-63
2020/12/04 00:28:18;;;;;;;28.38;13.35;;;;;;;0.94;77.88;98835.16;5103928;28;20032;-64
2020/12/04 00:30:44;;;;;;;31.55;13.32;;;;;;;1.06;77.34;98841.19;5104003;28;20091;-64
2020/12/04 00:33:09;;;;;;;21.02;8.32;;;;;;;0.90;78.13;98835.13;5104066;28;20046;-63
2020/12/04 00:35:35;;;;;;;21.90;9.52;;;;;;;1.17;76.66;98834.41;5104089;28;20027;-63
2020/12/04 00:38:00;;;;;;;34.33;15.48;;;;;;;0.90;77.79;98833.44;5104087;28;20024;-64
2020/12/04 00:40:26;;;;;;;34.22;15.93;;;;;;;0.97;77.81;98840.31;5104105;28;20068;-63
2020/12/04 00:42:51;;;;;;;17.65;7.80;;;;;;;1.13;77.46;98837.81;5102520;28;20047;-63
2020/12/04 00:45:16;;;;;;;25.13;11.45;;;;;;;1.20;76.82;98841.25;5103799;28;20346;-63
2020/12/04 00:47:42;;;;;;;28.33;12.05;;;;;;;1.15;77.07;98837.81;5103746;28;20031;-64
2020/12/04 00:50:08;;;;;;;19.80;8.77;;;;;;;1.21;76.68;98836.16;5104073;28;20103;-64
2020/12/04 00:52:34;;;;;;;30.25;13.68;;;;;;;0.99;77.63;98832.66;5103785;28;20028;-64
2020/12/04 00:54:59;;;;;;;32.65;15.68;;;;;;;1.01;77.32;98841.16;5103903;28;20024;-65
2020/12/04 00:57:24;;;;;;;25.15;11.50;;;;;;;1.05;77.33;98836.91;5103730;28;20047;-64
2020/12/04 00:59:50;;;;;;;39.08;16.98;;;;;;;0.91;78.01;98835.13;5103432;28;20031;-63
2020/12/04 01:02:16;;;;;;;11.52;6.95;;;;;;;1.10;77.29;98836.09;5103831;28;20020;-63
2020/12/04 01:04:41;;;;;;;23.92;8.90;;;;;;;1.03;77.32;98833.50;5103452;28;20020;-64
2020/12/04 01:07:07;;;;;;;31.88;13.27;;;;;;;0.96;77.80;98833.47;5103701;28;20463;-63
2020/12/04 01:09:33;;;;;;;31.38;15.40;;;;;;;0.82;78.56;98829.97;5103672;28;20085;-64
2020/12/04 01:11:59;;;;;;;30.42;13.18;;;;;;;0.97;77.70;98826.66;5101977;28;20131;-64
2020/12/04 01:14:25;;;;;;;32.97;15.75;;;;;;;0.85;78.34;98825.75;5103294;28;20040;-65
2020/12/04 01:16:50;;;;;;;23.92;10.75;;;;;;;0.90;78.06;98807.88;5103418;28;20027;-63
2020/12/04 01:19:16;;;;;;;26.63;14.15;;;;;;;1.04;77.51;98794.31;5103576;28;20054;-64
2020/12/04 01:21:41;;;;;;;20.40;9.77;;;;;;;1.13;76.93;98804.59;5103700;28;20044;-63
2020/12/04 01:24:06;;;;;;;24.38;10.65;;;;;;;1.03;77.29;98810.50;5103448;28;20032;-63
2020/12/04 01:26:32;;;;;;;29.88;14.07;;;;;;;0.81;78.05;98800.16;5103412;28;20076;-64
2020/12/04 01:28:57;;;;;;;24.75;10.13;;;;;;;1.15;76.73;98797.75;5103316;28;20039;-63
2020/12/04 01:31:23;;;;;;;21.67;10.27;;;;;;;1.33;75.97;98803.78;5103464;28;20060;-63
2020/12/04 01:33:48;;;;;;;34.58;13.90;;;;;;;0.98;77.31;98818.13;5103443;28;20024;-63
2020/12/04 01:36:14;;;;;;;41.15;14.57;;;;;;;0.99;77.30;98817.31;5103456;28;20525;-63
2020/12/04 01:38:41;;;;;;;26.80;9.45;;;;;;;0.99;77.37;98802.81;5103386;28;20031;-64
2020/12/04 01:41:06;;;;;;;35.63;11.30;;;;;;;0.83;78.06;98809.53;5103444;28;20507;-63
2020/12/04 01:43:31;;;;;;;28.80;12.82;;;;;;;1.11;76.99;98808.84;5107019;28;20019;-64
2020/12/04 01:45:58;;;;;;;31.90;13.70;;;;;;;1.04;77.25;98807.09;5105792;28;20028;-63
2020/12/04 01:48:24;;;;;;;41.50;14.43;;;;;;;0.82;77.81;98805.28;5107416;28;20421;-64
2020/12/04 01:50:51;;;;;;;40.45;17.17;;;;;;;1.03;77.04;98808.81;5107144;28;20083;-65
2020/12/04 01:53:19;;;;;;;26.58;10.38;;;;;;;1.23;76.58;98801.22;5107116;28;20020;-63
2020/12/04 01:55:46;;;;;;;30.90;12.98;;;;;;;0.97;77.21;98793.44;5107052;28;20028;-66
2020/12/04 01:58:13;;;;;;;37.95;16.05;;;;;;;0.93;77.24;98813.00;5106753;28;20024;-64
2020/12/04 02:00:38;;;;;;;30.15;13.23;;;;;;;1.20;76.53;98823.34;5106642;28;20048;-63
2020/12/04 02:03:06;;;;;;;32.17;12.52;;;;;;;1.26;76.47;98819.97;5105520;28;20030;-64
2020/12/04 02:05:32;;;;;;;26.08;10.80;;;;;;;1.12;76.95;98825.88;5106688;28;20028;-63
2020/12/04 02:08:11;;;;;;;28.50;11.88;;;;;;;1.28;76.29;98834.47;5106944;28;20032;-64
2020/12/04 02:10:46;;;;;;;31.05;14.70;;;;;;;1.33;76.30;98811.47;5106757;28;20082;-64
2020/12/04 02:13:13;;;;;;;36.20;14.25;;;;;;;1.22;76.26;98812.28;5106660;28;20564;-63
2020/12/04 02:15:38;;;;;;;17.33;8.60;;;;;;;1.10;77.31;98810.53;5106265;28;20035;-64
2020/12/04 02:18:04;;;;;;;19.88;10.23;;;;;;;1.52;75.36;98791.09;5106586;28;20072;-63
2020/12/04 02:20:32;;;;;;;29.90;12.57;;;;;;;1.27;76.01;98808.88;5106713;28;20024;-64
2020/12/04 02:22:57;;;;;;;31.15;11.52;;;;;;;1.43;74.97;98805.53;5106555;28;20085;-62
2020/12/04 02:25:23;;;;;;;26.42;11.15;;;;;;;1.33;75.83;98806.34;5106345;28;20028;-63
2020/12/04 02:27:49;;;;;;;37.88;11.88;;;;;;;1.25;75.89;98803.75;5106492;28;20058;-63
2020/12/04 02:30:35;;;;;;;20.65;9.10;;;;;;;1.50;75.02;98813.22;5106205;28;20024;-64
2020/12/04 02:33:01;;;;;;;31.40;12.55;;;;;;;1.42;75.25;98791.03;5106039;28;20185;-63
2020/12/04 02:35:28;;;;;;;28.77;11.02;;;;;;;1.42;75.19;98816.59;5106127;28;20057;-63
2020/12/04 02:37:53;;;;;;;32.58;14.23;;;;;;;1.33;75.03;98803.78;5106401;28;20128;-63
2020/12/04 02:40:20;;;;;;;25.92;11.15;;;;;;;1.48;74.65;98793.63;5106240;28;20233;-63
2020/12/04 02:42:45;;;;;;;21.90;9.15;;;;;;;1.25;75.80;98798.66;5106003;28;20100;-65
2020/12/04 02:45:12;;;;;;;24.17;8.95;;;;;;;1.06;76.67;98777.28;5105794;28;20020;-62
2020/12/04 02:47:38;;;;;;;32.28;11.20;;;;;;;1.22;76.05;98796.09;5106079;28;20065;-63
2020/12/04 02:50:03;;;;;;;19.75;9.25;;;;;;;0.97;77.02;98793.44;5106133;28;20028;-63
2020/12/04 02:52:29;;;;;;;32.75;13.82;;;;;;;1.16;76.50;98793.50;5105559;28;20036;-63
2020/12/04 02:54:54;;;;;;;32.17;14.95;;;;;;;1.04;76.99;98804.56;5105094;28;20027;-65
2020/12/04 02:57:19;;;;;;;25.30;11.55;;;;;;;1.06;77.09;98797.72;5105698;28;20019;-64
2020/12/04 02:59:45;;;;;;;28.38;10.77;;;;;;;0.84;77.77;98793.38;5105402;28;20085;-64
2020/12/04 03:02:10;;;;;;;27.00;10.65;;;;;;;0.92;77.57;98793.41;5105890;28;20024;-64
2020/12/04 03:04:36;;;;;;;29.92;11.20;;;;;;;1.04;77.28;98791.78;5105564;28;20024;-64
2020/12/04 03:07:02;;;;;;;37.53;13.35;;;;;;;1.06;76.98;98796.03;5105352;28;20038;-64
2020/12/04 03:09:27;;;;;;;26.88;12.95;;;;;;;1.16;76.50;98794.38;5105585;28;20048;-65
2020/12/04 03:11:54;;;;;;;40.42;16.90;;;;;;;0.93;77.51;98795.13;5105667;28;20359;-64
2020/12/04 03:14:20;;;;;;;37.42;15.25;;;;;;;1.08;77.01;98793.47;5105280;28;20027;-63
2020/12/04 03:16:46;;;;;;;19.33;10.13;;;;;;;1.29;76.15;98790.16;5105307;28;20031;-63
2020/12/04 03:19:11;;;;;;;47.20;18.58;;;;;;;1.26;75.83;98795.28;5105601;28;20106;-63
2020/12/04 03:21:36;;;;;;;40.15;16.38;;;;;;;1.23;75.80;98795.25;5105485;28;20020;-63
2020/12/04 03:24:02;;;;;;;29.02;11.65;;;;;;;1.01;77.34;98786.66;5105427;28;20053;-63
2020/12/04 03:26:27;;;;;;;32.13;14.45;;;;;;;1.11;76.80;98801.16;5105665;28;20461;-64
2020/12/04 03:28:52;;;;;;;37.15;16.85;;;;;;;1.18;76.12;98795.22;5104998;28;20472;-64
2020/12/04 03:31:18;;;;;;;39.22;17.42;;;;;;;0.89;77.48;98788.28;5105209;28;20043;-63
2020/12/04 03:33:43;;;;;;;37.35;16.10;;;;;;;0.96;77.54;98800.25;5105422;28;20028;-64
2020/12/04 03:36:08;;;;;;;43.78;19.92;;;;;;;1.01;77.23;98791.75;5105117;28;20031;-67
2020/12/04 03:38:34;;;;;;;39.17;15.63;;;;;;;1.24;76.17;98791.84;5105099;28;20027;-63
2020/12/04 03:40:59;;;;;;;34.42;15.00;;;;;;;1.40;75.63;98787.63;5104970;28;20081;-63
2020/12/04 03:43:24;;;;;;;36.25;15.02;;;;;;;1.02;76.73;98791.78;5104830;28;20219;-64
2020/12/04 03:45:50;;;;;;;48.35;18.30;;;;;;;0.95;77.13;98803.66;5104998;28;20033;-64
2020/12/04 03:48:15;;;;;;;36.15;15.40;;;;;;;1.01;77.13;98791.75;5105015;28;20363;-64
2020/12/04 03:50:41;;;;;;;32.75;12.32;;;;;;;1.28;76.52;98795.28;5104850;28;20050;-63
2020/12/04 03:53:06;;;;;;;46.30;18.83;;;;;;;1.02;77.01;98794.31;5104808;28;20028;-64
2020/12/04 03:55:32;;;;;;;44.75;15.70;;;;;;;0.94;77.42;98778.94;5105010;28;20023;-63
2020/12/04 03:57:57;;;;;;;35.60;14.18;;;;;;;1.49;75.33;98797.03;5104541;28;20469;-63
2020/12/04 04:00:23;;;;;;;22.85;9.30;;;;;;;1.44;75.11;98791.03;5104227;28;20040;-63
2020/12/04 04:02:48;;;;;;;49.72;21.08;;;;;;;1.17;76.15;98806.31;5104582;28;20108;-63
2020/12/04 04:05:14;;;;;;;35.67;15.60;;;;;;;1.13;76.56;98793.50;5104009;28;20026;-62
2020/12/04 04:07:39;;;;;;;43.58;18.88;;;;;;;1.15;76.23;98797.75;5104701;28;20020;-63
2020/12/04 04:10:05;;;;;;;22.58;9.65;;;;;;;1.23;75.69;98795.25;5104536;28;20023;-64
2020/12/04 04:12:30;;;;;;;30.90;15.95;;;;;;;1.56;74.73;98792.78;5104563;28;20076;-64
2020/12/04 04:14:56;;;;;;;18.88;9.07;;;;;;;1.29;75.33;98799.53;5104001;28;20027;-64
2020/12/04 04:17:21;;;;;;;47.92;21.13;;;;;;;1.01;76.49;98795.16;5104288;28;20031;-65
2020/12/04 04:19:46;;;;;;;33.80;12.98;;;;;;;1.23;75.88;98801.22;5104243;28;20377;-65
2020/12/04 04:22:12;;;;;;;26.52;11.10;;;;;;;1.16;76.39;98804.59;5104374;28;20092;-65
2020/12/04 04:24:37;;;;;;;34.13;13.75;;;;;;;1.19;75.79;98796.06;5104097;28;20016;-63
2020/12/04 04:27:03;;;;;;;33.47;14.77;;;;;;;1.07;75.88;98768.78;5104275;28;20123;-63
2020/12/04 04:29:28;;;;;;;24.60;10.07;;;;;;;1.27;75.64;98799.53;5103874;28;20050;-63
2020/12/04 04:31:53;;;;;;;35.08;13.05;;;;;;;1.09;75.78;98810.50;5104239;28;20036;-63
2020/12/04 04:34:20;;;;;;;44.40;20.00;;;;;;;1.10;76.06;98814.81;5103936;28;20023;-63
2020/12/04 04:36:46;;;;;;;41.45;14.32;;;;;;;1.03;76.59;98806.25;5103915;28;20472;-63
2020/12/04 04:39:11;;;;;;;29.33;13.50;;;;;;;1.35;75.13;98805.53;5103790;28;20278;-64
2020/12/04 04:41:37;;;;;;;33.20;13.65;;;;;;;1.58;73.96;98796.22;5104020;28;20027;-63
2020/12/04 04:44:02;;;;;;;40.45;17.52;;;;;;;1.07;75.62;98796.91;5102149;28;20038;-64
2020/12/04 04:46:37;;;;;;;42.05;15.35;;;;;;;1.18;75.72;98790.09;5104000;28;20066;-63
2020/12/04 04:49:12;;;;;;;30.73;12.15;;;;;;;1.10;75.83;98805.41;5104325;28;20028;-64
2020/12/04 04:51:40;;;;;;;45.67;19.33;;;;;;;1.02;76.01;98807.09;5103798;28;20468;-63
2020/12/04 04:54:08;;;;;;;50.42;19.77;;;;;;;1.10;75.79;98796.91;5103623;28;20512;-63
2020/12/04 04:56:33;;;;;;;35.42;14.23;;;;;;;1.54;74.07;98786.78;5103613;28;20527;-63
2020/12/04 04:58:58;;;;;;;25.33;11.27;;;;;;;1.33;74.73;98793.56;5103477;28;20016;-63
2020/12/04 05:01:24;;;;;;;35.60;15.55;;;;;;;1.36;74.32;98797.00;5103397;28;20047;-63
2020/12/04 05:03:59;;;;;;;40.00;15.60;;;;;;;1.29;74.06;98795.28;5103634;28;20306;-63
2020/12/04 05:06:35;;;;;;;51.50;20.02;;;;;;;1.04;75.85;98797.72;5103668;28;20023;-63
2020/12/04 05:09:04;;;;;;;49.65;16.83;;;;;;;1.20;75.44;98800.34;5103547;28;20081;-63
2020/12/04 05:11:34;;;;;;;50.75;19.70;;;;;;;1.17;75.21;98793.50;5103438;28;20031;-64
2020/12/04 05:14:17;;;;;;;50.97;21.55;;;;;;;1.13;75.54;98789.25;5103390;28;20024;-64
2020/12/04 05:16:44;;;;;;;44.92;14.32;;;;;;;1.27;74.96;98791.84;5103180;28;20031;-64
2020/12/04 05:19:10;;;;;;;43.72;16.40;;;;;;;1.27;74.83;98807.19;5106567;28;20024;-64
2020/12/04 05:21:36;;;;;;;43.00;18.45;;;;;;;1.29;74.53;98797.84;5107728;28;20020;-64
2020/12/04 05:24:03;;;;;;;40.72;16.90;;;;;;;1.20;75.15;98793.53;5107683;28;20075;-64
2020/12/04 05:26:33;;;;;;;42.22;16.63;;;;;;;1.21;75.09;98800.38;5107913;28;20035;-63
2020/12/04 05:29:00;;;;;;;37.70;14.32;;;;;;;1.24;74.82;98794.41;5107387;28;20020;-63
2020/12/04 05:31:30;;;;;;;37.28;16.85;;;;;;;1.07;75.58;98804.56;5107559;28;20387;-65
2020/12/04 05:33:57;;;;;;;42.70;15.20;;;;;;;1.03;75.83;98798.56;5107700;28;20091;-65
2020/12/04 05:36:24;;;;;;;34.35;13.55;;;;;;;1.19;75.40;98814.84;5107358;28;20066;-66
2020/12/04 05:38:51;;;;;;;35.72;15.45;;;;;;;1.42;74.53;98797.88;5105873;28;20035;-66
2020/12/04 05:41:17;;;;;;;26.77;11.60;;;;;;;1.30;74.75;98798.66;5107239;28;20024;-65
2020/12/04 05:43:42;;;;;;;22.05;10.15;;;;;;;1.32;74.67;98808.06;5107076;28;20353;-66
2020/12/04 05:46:25;;;;;;;46.20;17.48;;;;;;;1.17;75.31;98806.31;5107159;28;20107;-66
2020/12/04 05:49:04;;;;;;;28.08;11.60;;;;;;;1.22;75.37;98808.88;5107318;28;20471;-65
2020/12/04 05:51:33;;;;;;;52.78;22.73;;;;;;;1.06;75.91;98797.72;5107415;28;20020;-66
2020/12/04 05:54:00;;;;;;;42.33;16.90;;;;;;;1.29;74.91;98799.53;5107062;28;20051;-66
2020/12/04 05:56:26;;;;;;;32.83;15.18;;;;;;;1.42;74.62;98800.44;5105334;28;20020;-65
2020/12/04 05:58:56;;;;;;;57.92;24.40;;;;;;;1.20;75.18;98803.75;5106921;28;20044;-67
2020/12/04 06:01:22;;;;;;;34.70;14.07;;;;;;;1.36;74.87;98807.22;5106889;28;20055;-66
2020/12/04 06:03:49;;;;;;;19.63;11.38;;;;;;;1.45;74.47;98795.31;5107148;28;20169;-66
2020/12/04 06:06:23;;;;;;;42.10;19.40;;;;;;;1.33;74.82;98808.91;5106879;28;20438;-63
2020/12/04 06:08:50;;;;;;;46.83;19.42;;;;;;;1.13;75.25;98779.03;5107029;28;20491;-65
2020/12/04 06:11:16;;;;;;;34.33;13.70;;;;;;;1.34;75.08;98802.97;5106763;28;20032;-65
2020/12/04 06:13:41;;;;;;;44.10;17.98;;;;;;;1.51;74.14;98795.34;5106652;28;20031;-65
2020/12/04 06:16:12;;;;;;;29.33;15.23;;;;;;;1.33;74.54;98793.56;5106524;28;20178;-65
2020/12/04 06:18:37;;;;;;;31.88;14.68;;;;;;;1.43;74.65;98791.91;5106747;28;20024;-64
2020/12/04 06:21:03;;;;;;;44.10;15.10;;;;;;;1.28;74.61;98801.22;5106568;28;20026;-64
2020/12/04 06:23:28;;;;;;;57.63;24.63;;;;;;;1.23;74.86;98803.75;5106307;28;20030;-64
2020/12/04 06:25:56;;;;;;;31.27;15.07;;;;;;;1.28;75.14;98800.38;5106398;28;20092;-65
2020/12/04 06:28:41;;;;;;;35.85;13.52;;;;;;;1.59;73.89;98787.66;5106030;28;20457;-64
2020/12/04 06:31:13;;;;;;;34.22;13.93;;;;;;;1.30;74.71;98802.09;5104627;28;20031;-66
2020/12/04 06:33:45;;;;;;;33.92;14.35;;;;;;;1.48;74.46;98800.44;5104914;28;20043;-63
2020/12/04 06:36:13;;;;;;;43.88;17.67;;;;;;;1.17;74.86;98796.06;5106243;28;20020;-70
2020/12/04 06:38:41;;;;;;;44.45;18.98;;;;;;;1.34;74.19;98813.19;5106420;28;20024;-68
2020/12/04 06:41:26;;;;;;;44.65;18.10;;;;;;;0.97;75.74;98799.41;5104944;28;20027;-64
2020/12/04 06:43:57;;;;;;;49.88;20.77;;;;;;;0.92;76.11;98800.22;5106037;28;20024;-64
2020/12/04 06:46:37;;;;;;;28.85;13.15;;;;;;;1.43;74.24;98802.97;5104592;28;20065;-63
2020/12/04 06:49:23;;;;;;;34.60;14.20;;;;;;;1.36;74.14;98801.25;5106251;28;20032;-64
2020/12/04 06:52:10;;;;;;;49.45;18.70;;;;;;;0.92;75.67;98806.19;5104822;28;20020;-65
2020/12/04 06:54:41;;;;;;;33.13;15.88;;;;;;;0.83;76.18;98799.31;5106079;28;20123;-64
2020/12/04 06:57:08;;;;;;;43.17;20.00;;;;;;;0.99;75.55;98823.25;5106235;28;20035;-65
2020/12/04 06:59:38;;;;;;;40.75;17.20;;;;;;;0.74;76.23;98817.16;5104505;28;20101;-65
2020/12/04 07:02:06;;;;;;;35.38;14.90;;;;;;;1.12;75.48;98800.31;5105674;28;20040;-64
2020/12/04 07:04:33;;;;;;;48.63;21.38;;;;;;;0.92;75.89;98808.75;5105452;28;20051;-66
2020/12/04 07:07:05;;;;;;;35.20;15.38;;;;;;;1.11;75.10;98803.72;5105780;28;20060;-66
2020/12/04 07:09:31;;;;;;;24.50;10.40;;;;;;;1.02;75.68;98790.91;5105802;28;20028;-63
2020/12/04 07:11:58;;;;;;;28.75;12.85;;;;;;;1.06;75.47;98795.16;5105631;28;20463;-65
2020/12/04 07:14:24;;;;;;;29.73;12.55;;;;;;;0.93;76.09;98799.38;5105273;28;20118;-64
2020/12/04 07:16:50;;;;;;;52.75;21.88;;;;;;;0.80;76.29;98806.97;5105737;28;20053;-70
2020/12/04 07:19:15;;;;;;;59.85;23.55;;;;;;;0.56;76.92;98798.31;5104189;28;20020;-67
2020/12/04 07:21:41;;;;;;;32.10;13.05;;;;;;;1.00;75.88;98793.44;5105669;28;20016;-64
2020/12/04 07:24:07;;;;;;;27.73;11.80;;;;;;;0.92;76.04;98800.22;5105676;28;20035;-64
2020/12/04 07:26:33;;;;;;;25.35;11.45;;;;;;;0.83;76.33;98786.53;5104065;28;20032;-65
2020/12/04 07:28:58;;;;;;;30.20;12.52;;;;;;;0.94;76.11;98785.75;5104021;28;20435;-63
2020/12/04 07:31:24;;;;;;;55.05;22.50;;;;;;;0.69;76.75;98814.59;5105479;28;20038;-65
2020/12/04 07:34:00;;;;;;;52.30;20.60;;;;;;;0.77;76.99;98817.19;5105286;28;20075;-64
2020/12/04 07:36:26;;;;;;;32.90;16.60;;;;;;;0.92;76.44;98815.56;5105219;28;20391;-65
2020/12/04 07:38:54;;;;;;;43.60;15.77;;;;;;;0.59;77.46;98807.72;5104881;28;20024;-65
2020/12/04 07:41:38;;;;;;;43.80;18.23;;;;;;;0.67;77.37;98829.03;5104945;28;20027;-65
2020/12/04 07:44:08;;;;;;;32.05;12.93;;;;;;;0.78;77.22;98825.72;5104660;28;20024;-66
2020/12/04 07:46:35;;;;;;;32.92;15.20;;;;;;;0.73;77.45;98831.66;5103409;28;20020;-66
2020/12/04 07:49:16;;;;;;;39.08;16.27;;;;;;;0.83;76.85;98836.81;5104952;28;20028;-66
2020/12/04 07:51:42;;;;;;;25.37;10.70;;;;;;;0.71;77.01;98830.78;5105179;28;20077;-65
2020/12/04 07:54:21;;;;;;;50.58;22.92;;;;;;;0.55;77.90;98839.16;5104907;28;20024;-66
2020/12/04 07:56:50;;;;;;;46.45;19.83;;;;;;;0.93;76.79;98840.25;5105038;28;20094;-65
2020/12/04 07:59:22;;;;;;;32.05;13.50;;;;;;;0.79;77.15;98830.81;5104750;28;20061;-65
2020/12/04 08:01:47;;;;;;;;;;;;;;;0.81;77.60;98823.16;5105357;28;20040;-65
2020/12/04 08:04:17;;;;;;;31.40;13.15;;;;;;;0.90;76.92;98833.44;5104817;28;19914;-65
2020/12/04 08:06:43;;;;;;;44.03;20.23;;;;;;;0.88;76.95;98834.28;5104792;28;20030;-66
2020/12/04 08:09:14;;;;;;;42.13;19.33;;;;;;;0.82;77.45;98838.50;5104721;28;20417;-65
2020/12/04 08:12:02;;;;;;;53.67;23.60;;;;;;;0.71;77.91;98829.91;5104824;28;20031;-66
2020/12/04 08:14:28;;;;;;;55.40;22.80;;;;;;;0.71;77.79;98822.25;5102229;28;20024;-66
2020/12/04 08:16:59;;;;;;;50.58;20.60;;;;;;;0.77;77.72;98831.66;5100721;28;20021;-66
2020/12/04 08:19:29;;;;;;;59.47;24.58;;;;;;;0.64;78.40;98834.13;5101398;28;20035;-66
2020/12/04 08:22:02;;;;;;;39.60;15.27;;;;;;;0.93;77.37;98833.44;5101272;28;20024;-65
2020/12/04 08:24:34;;;;;;;38.33;15.15;;;;;;;0.98;77.19;98836.03;5101245;28;20024;-64
2020/12/04 08:27:11;;;;;;;32.83;15.00;;;;;;;1.21;76.89;98838.72;5101139;28;20556;-64
2020/12/04 08:29:41;;;;;;;40.47;16.90;;;;;;;1.17;76.70;98841.22;5102307;28;20051;-65
2020/12/04 08:32:21;;;;;;;30.70;15.60;;;;;;;1.22;77.58;98855.75;5104384;28;20031;-65
2020/12/04 08:34:48;;;;;;;49.47;21.88;;;;;;;1.08;77.72;98859.94;5104335;28;20024;-65
2020/12/04 08:37:16;;;;;;;39.65;19.38;;;;;;;1.22;77.76;98845.53;5104372;28;20019;-65
2020/12/04 08:39:47;;;;;;;40.10;17.90;;;;;;;1.19;77.80;98854.88;5104140;28;20515;-67
2020/12/04 08:42:15;;;;;;;63.38;24.85;;;;;;;1.21;77.88;98854.06;5104311;28;20032;-67
2020/12/04 08:44:41;;;;;;;53.83;23.52;;;;;;;1.37;77.46;98856.69;5103865;28;20016;-66
2020/12/04 08:47:06;;;;;;;48.30;21.58;;;;;;;1.34;77.63;98854.94;5104096;28;20080;-66
2020/12/04 08:49:32;;;;;;;45.50;18.45;;;;;;;1.37;77.46;98854.13;5104132;28;20047;-66
2020/12/04 08:51:57;;;;;;;51.22;23.10;;;;;;;1.33;77.69;98862.59;5104099;28;20051;-66
2020/12/04 08:54:22;;;;;;;48.28;23.25;;;;;;;1.41;77.48;98863.50;5103819;28;20028;-67
2020/12/04 08:56:52;;;;;;;55.50;23.85;;;;;;;1.39;77.71;98854.13;5103884;28;20519;-67
2020/12/04 08:59:18;;;;;;;47.00;21.85;;;;;;;1.53;77.02;98865.25;5102329;28;20084;-67
2020/12/04 09:01:43;;;;;;;34.88;15.00;;;;;;;1.47;77.18;98865.25;5103847;28;20048;-68
2020/12/04 09:04:08;;;;;;;42.63;15.38;;;;;;;1.51;77.38;98863.53;5103760;28;20028;-65
2020/12/04 09:06:34;;;;;;;40.83;17.88;;;;;;;1.47;77.08;98868.63;5102392;28;20046;-66
2020/12/04 09:08:59;;;;;;;55.60;24.42;;;;;;;1.59;76.89;98870.41;5103868;28;20024;-66
2020/12/04 09:11:24;;;;;;;48.60;20.75;;;;;;;1.60;77.01;98866.13;5103893;28;20034;-66
2020/12/04 09:13:50;;;;;;;32.75;11.93;;;;;;;1.51;77.41;98864.38;5103346;28;20024;-66
2020/12/04 09:16:15;;;;;;;30.55;11.48;;;;;;;1.73;76.84;98862.75;5103466;28;20545;-65
2020/12/04 09:18:40;;;;;;;40.25;18.63;;;;;;;1.65;76.76;98872.09;5103851;28;20070;-67
2020/12/04 09:21:06;;;;;;;24.83;11.98;;;;;;;1.68;76.89;98874.66;5103633;28;20024;-65
2020/12/04 09:23:33;;;;;;;58.05;24.83;;;;;;;1.65;76.60;98856.75;5102278;28;20092;-67
2020/12/04 09:25:59;;;;;;;52.97;22.70;;;;;;;1.64;76.90;98878.09;5103614;28;20028;-67
2020/12/04 09:28:24;;;;;;;54.65;23.08;;;;;;;1.66;76.57;98855.91;5103517;28;20035;-66
2020/12/04 09:30:49;;;;;;;47.13;21.58;;;;;;;1.65;76.87;98861.00;5103615;28;20035;-65
2020/12/04 09:33:14;;;;;;;38.63;17.02;;;;;;;1.68;76.78;98869.56;5103545;28;20019;-66
2020/12/04 09:35:40;;;;;;;52.75;24.20;;;;;;;1.67;76.86;98867.84;5101376;28;20446;-67
2020/12/04 09:38:05;;;;;;;48.42;20.65;;;;;;;1.63;77.21;98868.69;5103667;28;20028;-66
2020/12/04 09:40:31;;;;;;;32.63;16.48;;;;;;;1.81;75.93;98849.97;5103633;28;20024;-66
2020/12/04 09:42:56;;;;;;;51.15;23.52;;;;;;;1.78;76.26;98867.88;5103452;28;20031;-66
2020/12/04 09:45:22;;;;;;;39.35;18.48;;;;;;;1.78;76.39;98859.34;5102924;28;20031;-67
2020/12/04 09:47:47;;;;;;;37.75;16.38;;;;;;;1.84;75.51;98851.69;5103471;28;20020;-66
2020/12/04 09:50:15;;;;;;;33.05;14.27;;;;;;;1.79;76.16;98867.03;5103379;28;20083;-66
2020/12/04 09:52:40;;;;;;;49.10;21.45;;;;;;;1.92;75.35;98867.91;5103223;28;20031;-66
2020/12/04 09:55:08;;;;;;;49.08;21.23;;;;;;;1.80;76.10;98862.78;5103037;28;20140;-66
2020/12/04 09:57:34;;;;;;;30.40;12.75;;;;;;;1.82;76.16;98868.75;5103270;28;20028;-66
2020/12/04 09:59:59;;;;;;;46.45;17.35;;;;;;;1.78;75.80;98849.97;5102955;28;20048;-66
2020/12/04 10:02:24;;;;;;;56.10;23.83;;;;;;;1.76;76.45;98855.94;5104007;28;20047;-65
2020/12/04 10:04:50;;;;;;;49.63;19.92;;;;;;;1.76;76.32;98855.94;5107142;28;20020;-66
2020/12/04 10:07:16;;;;;;;27.75;12.50;;;;;;;1.91;76.00;98852.56;5107022;28;20080;-66
2020/12/04 10:09:41;;;;;;;47.13;20.10;;;;;;;1.79;76.50;98856.78;5107080;28;20099;-66
2020/12/04 10:12:06;;;;;;;48.55;21.38;;;;;;;1.79;76.59;98856.78;5106113;28;20278;-66
2020/12/04 10:14:35;;;;;;;47.05;22.27;;;;;;;1.78;76.46;98854.22;5106294;28;20016;-66
2020/12/04 10:17:00;;;;;;;43.13;17.42;;;;;;;1.78;76.68;98855.09;5106813;28;20024;-66
2020/12/04 10:19:26;;;;;;;42.33;21.85;;;;;;;1.82;76.73;98861.91;5105326;28;20042;-65
2020/12/04 10:21:51;;;;;;;56.33;24.58;;;;;;;1.76;76.83;98859.34;5106316;28;20024;-66
2020/12/04 10:24:18;;;;;;;43.47;18.00;;;;;;;1.89;76.50;98860.22;5106732;28;20073;-65
2020/12/04 10:26:49;;;;;;;47.90;20.35;;;;;;;1.85;76.45;98873.88;5105966;28;20031;-65
2020/12/04 10:29:16;;;;;;;41.58;20.30;;;;;;;1.85;76.38;98856.78;5105411;28;20028;-65
2020/12/04 10:31:42;;;;;;;55.45;24.08;;;;;;;1.79;76.91;98861.06;5105957;28;20045;-65
2020/12/04 10:34:07;;;;;;;57.03;24.63;;;;;;;1.80;77.01;98852.53;5105832;28;20051;-65
2020/12/04 10:36:35;;;;;;;50.53;23.95;;;;;;;1.79;76.90;98843.16;5105661;28;20048;-65
2020/12/04 10:39:01;;;;;;;49.67;22.38;;;;;;;1.83;76.83;98857.66;5105352;28;20022;-65
2020/12/04 10:41:31;;;;;;;51.28;24.25;;;;;;;1.86;76.78;98857.66;5105424;28;20043;-65
2020/12/04 10:43:57;;;;;;;33.17;11.27;;;;;;;1.91;76.60;98844.88;5105244;28;20024;-65
2020/12/04 10:46:22;;;;;;;32.00;13.82;;;;;;;1.92;76.63;98850.00;5105644;28;20008;-65
2020/12/04 10:48:47;;;;;;;41.65;18.08;;;;;;;1.93;76.39;98848.28;5105643;28;20035;-65
2020/12/04 10:51:13;;;;;;;42.17;21.00;;;;;;;1.90;76.65;98851.69;5105688;28;20035;-65
2020/12/04 10:53:38;;;;;;;43.55;18.73;;;;;;;1.89;76.86;98855.09;5104371;28;20016;-65
2020/12/04 10:56:03;;;;;;;52.17;23.80;;;;;;;1.93;76.79;98843.19;5105414;28;20481;-65
2020/12/04 10:58:29;;;;;;;41.33;17.80;;;;;;;1.97;76.41;98840.63;5105324;28;20024;-65
2020/12/04 11:00:54;;;;;;;48.40;24.20;;;;;;;2.00;76.28;98849.16;5105279;28;20036;-65
2020/12/04 11:05:46;;;;;;;28.25;13.43;;;;;;;1.97;76.43;98842.31;5105220;28;20042;-65
2020/12/04 11:08:13;;;;;;;48.58;19.98;;;;;;;1.99;76.50;98838.06;5105217;28;20079;-65
2020/12/04 11:10:40;;;;;;;43.47;20.15;;;;;;;2.02;76.27;98848.31;5104134;28;20035;-65
2020/12/04 11:13:05;;;;;;;29.65;14.20;;;;;;;2.14;75.84;98846.63;5105494;28;20044;-65
2020/12/04 11:15:31;;;;;;;43.28;21.73;;;;;;;2.11;75.71;98844.88;5103823;28;20020;-65
2020/12/04 11:17:56;;;;;;;41.45;16.75;;;;;;;2.08;75.81;98842.31;5105498;28;20091;-66
2020/12/04 11:20:23;;;;;;;48.75;22.38;;;;;;;2.05;76.07;98839.75;5105280;28;20019;-66
2020/12/04 11:22:52;;;;;;;31.35;14.98;;;;;;;2.08;75.71;98837.22;5105206;28;20028;-68
2020/12/04 11:25:20;;;;;;;44.42;18.50;;;;;;;2.03;76.07;98826.13;5105163;28;20020;-66
2020/12/04 11:27:46;;;;;;;37.55;19.30;;;;;;;2.29;74.74;98832.94;5105206;28;20403;-66
2020/12/04 11:30:14;;;;;;;40.33;21.15;;;;;;;2.15;75.20;98838.94;5104551;28;20065;-65